Station Historical Data
Daily Summary for September 12, 2017 Units:  English    Metric   Both
« Previous Day
Next Day »
Daily Weekly Monthly Yearly Custom
  High: Low: Average:
Temperature: 90.1 °F 37.9 °F 61.9 °F
Dew Point: 49.2 °F 32.9 °F 39.4 °F
Humidity: 83% 17% 51%
Wind Speed: 10.3mph 0.0mph 0.6mph
Wind Gust: 12.0mph - -
Wind- - SSW
Pressure: 30.14 in 29.94 in -
Precipitation: 0.00 in    
Historical Graphs
 
 
Tabular Data for September 12, 2017
Time Temperature Dew Point Pressure Wind Wind Speed Wind Gust Humidity Rainfall Rate (Hourly) solar Conditions
00:03 47.1 °F 37.8 °F 30.14 in Calm     70% 0.00 in 0.0 W/m2 CLR
00:05 47.1 °F 37.8 °F 30.14 in Calm     70% 0.00 in 0.0 W/m2 CLR
00:10 46.9 °F 38.0 °F 30.14 in Calm     71% 0.00 in 0.0 W/m2 CLR
00:15 46.6 °F 37.7 °F 30.14 in Calm     71% 0.00 in 0.0 W/m2 CLR
00:20 46.2 °F 37.3 °F 30.14 in Calm     71% 0.00 in 0.0 W/m2 CLR
00:26 46.0 °F 37.5 °F 30.14 in Calm     72% 0.00 in 0.0 W/m2 CLR
00:31 45.7 °F 37.5 °F 30.14 in Calm     73% 0.00 in 0.0 W/m2 CLR
00:36 45.3 °F 37.2 °F 30.14 in Calm     73% 0.00 in 0.0 W/m2 CLR
00:41 45.1 °F 37.0 °F 30.14 in Calm     73% 0.00 in 0.0 W/m2 CLR
00:45 44.6 °F 36.8 °F 30.14 in Calm     74% 0.00 in 0.0 W/m2 CLR
00:50 44.6 °F 36.8 °F 30.14 in Calm     74% 0.00 in 0.0 W/m2 CLR
00:55 44.6 °F 37.2 °F 30.14 in Calm     75% 0.00 in 0.0 W/m2 CLR
01:00 44.8 °F 37.3 °F 30.14 in Calm     75% 0.00 in 0.0 W/m2 CLR
01:05 44.6 °F 36.8 °F 30.14 in Calm     74% 0.00 in 0.0 W/m2 CLR
01:10 44.4 °F 36.6 °F 30.13 in Calm     74% 0.00 in 0.0 W/m2 CLR
01:15 44.4 °F 36.6 °F 30.13 in Calm     74% 0.00 in 0.0 W/m2 CLR
01:20 44.4 °F 37.0 °F 30.14 in Calm     75% 0.00 in 0.0 W/m2 CLR
01:25 44.2 °F 36.8 °F 30.13 in Calm     75% 0.00 in 0.0 W/m2 CLR
01:30 44.2 °F 36.8 °F 30.14 in Calm     75% 0.00 in 0.0 W/m2 CLR
01:35 44.1 °F 36.6 °F 30.14 in Calm     75% 0.00 in 0.0 W/m2 CLR
01:40 43.7 °F 36.3 °F 30.14 in Calm     75% 0.00 in 0.0 W/m2 CLR
01:46 43.3 °F 35.9 °F 30.14 in Calm     75% 0.00 in 0.0 W/m2 CLR
01:50 43.2 °F 36.1 °F 30.14 in Calm     76% 0.00 in 0.0 W/m2 CLR
01:55 43.3 °F 36.3 °F 30.14 in Calm     76% 0.00 in 0.0 W/m2 CLR
02:00 43.3 °F 36.6 °F 30.14 in Calm     77% 0.00 in 0.0 W/m2 CLR
02:05 43.2 °F 36.1 °F 30.14 in Calm     76% 0.00 in 0.0 W/m2 CLR
02:10 43.0 °F 36.3 °F 30.14 in Calm     77% 0.00 in 0.0 W/m2 CLR
02:16 42.4 °F 36.1 °F 30.14 in Calm     78% 0.00 in 0.0 W/m2 CLR
02:21 42.4 °F 36.1 °F 30.14 in Calm     78% 0.00 in 0.0 W/m2 CLR
02:26 42.4 °F 36.1 °F 30.14 in Calm     78% 0.00 in 0.0 W/m2 CLR
02:31 42.1 °F 35.7 °F 30.14 in Calm     78% 0.00 in 0.0 W/m2 CLR
02:36 42.3 °F 35.9 °F 30.14 in Calm     78% 0.00 in 0.0 W/m2 CLR
02:41 42.4 °F 36.1 °F 30.14 in Calm     78% 0.00 in 0.0 W/m2 CLR
02:46 42.1 °F 35.7 °F 30.14 in Calm     78% 0.00 in 0.0 W/m2 CLR
02:51 42.1 °F 35.7 °F 30.14 in Calm     78% 0.00 in 0.0 W/m2 CLR
02:56 42.1 °F 35.7 °F 30.14 in Calm     78% 0.00 in 0.0 W/m2 CLR
03:00 42.1 °F 35.7 °F 30.14 in Calm     78% 0.00 in 0.0 W/m2 CLR
03:06 41.9 °F 35.5 °F 30.14 in Calm     78% 0.00 in 0.0 W/m2 CLR
03:11 41.5 °F 35.2 °F 30.13 in Calm     78% 0.00 in 0.0 W/m2 CLR
03:16 41.5 °F 35.2 °F 30.12 in Calm     78% 0.00 in 0.0 W/m2 CLR
03:21 41.4 °F 35.0 °F 30.13 in Calm     78% 0.00 in 0.0 W/m2 CLR
03:26 40.8 °F 34.8 °F 30.13 in Calm     79% 0.00 in 0.0 W/m2 CLR
03:31 40.6 °F 34.6 °F 30.13 in Calm     79% 0.00 in 0.0 W/m2 CLR
03:36 40.6 °F 35.0 °F 30.12 in Calm     80% 0.00 in 0.0 W/m2 CLR
03:41 40.3 °F 34.6 °F 30.13 in Calm     80% 0.00 in 0.0 W/m2 CLR
03:46 40.5 °F 34.8 °F 30.13 in Calm     80% 0.00 in 0.0 W/m2 CLR
03:51 40.3 °F 34.6 °F 30.13 in Calm     80% 0.00 in 0.0 W/m2 CLR
03:56 40.3 °F 34.6 °F 30.12 in Calm     80% 0.00 in 0.0 W/m2 CLR
04:01 40.3 °F 34.6 °F 30.13 in Calm     80% 0.00 in 0.0 W/m2 CLR
04:06 40.3 °F 34.6 °F 30.13 in Calm     80% 0.00 in 0.0 W/m2 CLR
04:11 40.3 °F 34.6 °F 30.13 in Calm     80% 0.00 in 0.0 W/m2 CLR
04:16 40.3 °F 34.6 °F 30.13 in Calm     80% 0.00 in 0.0 W/m2 CLR
04:21 40.3 °F 34.6 °F 30.13 in Calm     80% 0.00 in 0.0 W/m2 CLR
04:26 40.3 °F 34.6 °F 30.13 in Calm     80% 0.00 in 0.0 W/m2 CLR
04:31 40.3 °F 34.6 °F 30.13 in Calm     80% 0.00 in 0.0 W/m2 CLR
04:36 39.9 °F 34.6 °F 30.12 in Calm     81% 0.00 in 0.0 W/m2 CLR
04:41 39.9 °F 34.6 °F 30.13 in Calm     81% 0.00 in 0.0 W/m2 CLR
04:46 39.7 °F 34.4 °F 30.13 in Calm     81% 0.00 in 0.0 W/m2 CLR
04:51 39.4 °F 34.0 °F 30.12 in Calm     81% 0.00 in 0.0 W/m2 CLR
04:56 39.4 °F 34.0 °F 30.12 in Calm     81% 0.00 in 0.0 W/m2 CLR
05:01 39.4 °F 34.0 °F 30.13 in Calm     81% 0.00 in 0.0 W/m2 CLR
05:06 39.4 °F 34.0 °F 30.13 in Calm     81% 0.00 in 0.0 W/m2 CLR
05:11 39.6 °F 34.2 °F 30.12 in Calm     81% 0.00 in 0.0 W/m2 CLR
05:16 39.4 °F 34.0 °F 30.12 in Calm     81% 0.00 in 0.0 W/m2 CLR
05:21 39.4 °F 34.0 °F 30.12 in Calm     81% 0.00 in 0.0 W/m2 CLR
05:26 39.0 °F 33.7 °F 30.12 in Calm     81% 0.00 in 0.0 W/m2 CLR
05:31 39.0 °F 34.0 °F 30.12 in Calm     82% 0.00 in 0.0 W/m2 CLR
05:36 39.0 °F 34.0 °F 30.12 in Calm     82% 0.00 in 0.0 W/m2 CLR
05:41 39.0 °F 34.0 °F 30.12 in Calm     82% 0.00 in 0.0 W/m2 CLR
05:46 39.0 °F 33.7 °F 30.12 in Calm     81% 0.00 in 0.0 W/m2 CLR
05:51 39.0 °F 33.7 °F 30.12 in Calm     81% 0.00 in 0.0 W/m2 CLR
05:56 39.0 °F 33.7 °F 30.12 in Calm     81% 0.00 in 0.0 W/m2 CLR
06:01 39.0 °F 33.7 °F 30.12 in Calm     81% 0.00 in 0.0 W/m2 CLR
06:06 39.0 °F 33.7 °F 30.12 in Calm     81% 0.00 in 0.0 W/m2 CLR
06:11 39.0 °F 33.7 °F 30.12 in Calm     81% 0.00 in 0.0 W/m2 CLR
06:16 38.5 °F 33.2 °F 30.12 in Calm     81% 0.00 in 0.0 W/m2 CLR
06:21 38.5 °F 33.5 °F 30.12 in Calm     82% 0.00 in 0.0 W/m2 CLR
06:26 38.5 °F 33.5 °F 30.12 in Calm     82% 0.00 in 0.0 W/m2 CLR
06:31 38.5 °F 33.5 °F 30.12 in Calm     82% 0.00 in 0.0 W/m2 CLR
06:36 38.5 °F 33.5 °F 30.12 in Calm     82% 0.00 in 0.0 W/m2 CLR
06:41 37.9 °F 32.9 °F 30.12 in Calm     82% 0.00 in 0.0 W/m2 CLR
06:46 37.9 °F 32.9 °F 30.12 in Calm     82% 0.00 in 0.0 W/m2 CLR
06:51 37.9 °F 32.9 °F 30.13 in Calm     82% 0.00 in 0.0 W/m2 CLR
06:56 37.9 °F 32.9 °F 30.12 in Calm     82% 0.00 in 0.0 W/m2 CLR
07:01 37.9 °F 32.9 °F 30.12 in Calm     82% 0.00 in 0.0 W/m2 CLR
07:06 37.9 °F 32.9 °F 30.12 in Calm     82% 0.00 in 0.0 W/m2 CLR
07:11 38.1 °F 33.4 °F 30.12 in Calm     83% 0.00 in 0.0 W/m2 CLR
07:16 38.3 °F 33.6 °F 30.13 in Calm     83% 0.00 in 0.0 W/m2 CLR
07:21 38.5 °F 33.8 °F 30.13 in Calm     83% 0.00 in 0.0 W/m2 CLR
07:26 39.0 °F 34.3 °F 30.12 in Calm     83% 0.00 in 0.0 W/m2 CLR
07:31 39.2 °F 34.5 °F 30.12 in Calm     83% 0.00 in 0.0 W/m2 CLR
07:36 39.9 °F 35.2 °F 30.12 in Calm     83% 0.00 in 0.0 W/m2 CLR
07:41 40.5 °F 35.7 °F 30.12 in Calm     83% 0.00 in 0.0 W/m2 CLR
07:46 40.6 °F 35.9 °F 30.12 in Calm     83% 0.00 in 0.0 W/m2 CLR
07:51 41.5 °F 36.5 °F 30.12 in Calm     82% 0.00 in 0.0 W/m2 CLR
07:56 41.7 °F 36.6 °F 30.12 in Calm     82% 0.00 in 0.0 W/m2 CLR
08:01 43.3 °F 38.2 °F 30.12 in Calm     82% 0.00 in 0.0 W/m2 CLR
08:06 44.6 °F 38.8 °F 30.12 in Calm     80% 0.00 in 0.0 W/m2 CLR
08:11 46.2 °F 39.7 °F 30.12 in Calm     78% 0.00 in 0.0 W/m2 CLR
08:16 47.3 °F 40.5 °F 30.11 in Calm     77% 0.00 in 0.0 W/m2 CLR
08:21 48.9 °F 41.3 °F 30.11 in Calm     75% 0.00 in 0.0 W/m2 CLR
08:26 49.6 °F 41.7 °F 30.11 in Calm     74% 0.00 in 0.0 W/m2 CLR
08:27 50.2 °F 42.2 °F 30.11 in Calm     74% 0.00 in 0.0 W/m2 CLR
08:32 50.5 °F 41.8 °F 30.11 in Calm     72% 0.00 in 0.0 W/m2 CLR
08:37 50.7 °F 41.7 °F 30.12 in Calm     71% 0.00 in 0.0 W/m2 CLR
08:42 50.5 °F 41.5 °F 30.12 in Calm     71% 0.00 in 0.0 W/m2 CLR
08:47 50.7 °F 42.0 °F 30.11 in Calm     72% 0.00 in 0.0 W/m2 CLR
08:52 51.6 °F 42.5 °F 30.11 in Calm     71% 0.00 in 0.0 W/m2 CLR
08:57 52.5 °F 43.0 °F 30.11 in Calm     70% 0.00 in 0.0 W/m2 CLR
09:02 53.4 °F 43.1 °F 30.10 in Calm     68% 0.00 in 0.0 W/m2 CLR
09:07 54.1 °F 43.8 °F 30.10 in Calm     68% 0.00 in 0.0 W/m2 CLR
09:12 55.4 °F 44.6 °F 30.10 in Calm     67% 0.00 in 0.0 W/m2 CLR
09:17 56.3 °F 44.7 °F 30.10 in Calm     65% 0.00 in 0.0 W/m2 CLR
09:18 56.3 °F 44.7 °F 30.10 in Calm     65% 0.00 in 0.0 W/m2 CLR
09:23 57.7 °F 45.6 °F 30.10 in Calm     64% 0.00 in 0.0 W/m2 CLR
09:28 58.5 °F 45.5 °F 30.10 in Calm     62% 0.00 in 0.0 W/m2 CLR
09:33 59.2 °F 45.3 °F 30.10 in Calm     60% 0.00 in 0.0 W/m2 CLR
09:38 60.1 °F 45.2 °F 30.10 in Calm     58% 0.00 in 0.0 W/m2 CLR
09:43 61.0 °F 45.6 °F 30.10 in Calm     57% 0.00 in 0.0 W/m2 CLR
09:48 61.9 °F 46.0 °F 30.10 in Calm     56% 0.00 in 0.0 W/m2 CLR
09:53 63.1 °F 46.7 °F 30.10 in Calm     55% 0.00 in 0.0 W/m2 CLR
09:58 64.2 °F 47.2 °F 30.10 in Calm     54% 0.00 in 0.0 W/m2 CLR
10:03 65.1 °F 48.1 °F 30.09 in Calm     54% 0.00 in 0.0 W/m2 CLR
10:08 65.8 °F 47.2 °F 30.10 in Calm     51% 0.00 in 0.0 W/m2 CLR
10:13 66.4 °F 46.6 °F 30.10 in Calm     49% 0.00 in 0.0 W/m2 CLR
10:18 66.7 °F 47.5 °F 30.09 in Calm     50% 0.00 in 0.0 W/m2 CLR
10:23 68.9 °F 48.4 °F 30.09 in Calm     48% 0.00 in 0.0 W/m2 CLR
10:28 69.6 °F 48.5 °F 30.09 in Calm     47% 0.00 in 0.0 W/m2 CLR
10:33 69.6 °F 47.9 °F 30.09 in Calm     46% 0.00 in 0.0 W/m2 CLR
10:38 71.4 °F 48.4 °F 30.08 in Calm     44% 0.00 in 0.0 W/m2 CLR
10:43 72.1 °F 48.4 °F 30.08 in Calm     43% 0.00 in 0.0 W/m2 CLR
10:48 73.2 °F 48.7 °F 30.07 in Calm     42% 0.00 in 0.0 W/m2 CLR
10:53 74.1 °F 48.9 °F 30.07 in Calm     41% 0.00 in 0.0 W/m2 CLR
10:58 74.5 °F 48.6 °F 30.07 in Calm     40% 0.00 in 0.0 W/m2 CLR
11:03 74.8 °F 48.2 °F 30.07 in Calm     39% 0.00 in 0.0 W/m2 CLR
11:08 75.7 °F 48.3 °F 30.07 in Calm     38% 0.00 in 0.0 W/m2 CLR
11:13 75.9 °F 47.8 °F 30.07 in Calm     37% 0.00 in 0.0 W/m2 CLR
11:18 76.3 °F 48.8 °F 30.06 in Calm     38% 0.00 in 0.0 W/m2 CLR
11:23 76.8 °F 48.6 °F 30.06 in Calm     37% 0.00 in 0.0 W/m2 CLR
11:28 77.2 °F 48.9 °F 30.06 in Calm     37% 0.00 in 0.0 W/m2 CLR
11:33 77.5 °F 49.2 °F 30.06 in Calm     37% 0.00 in 0.0 W/m2 CLR
11:38 78.1 °F 48.9 °F 30.06 in Calm     36% 0.00 in 0.0 W/m2 CLR
11:43 78.6 °F 47.1 °F 30.05 in Calm     33% 0.00 in 0.0 W/m2 CLR
11:48 79.3 °F 46.9 °F 30.05 in Calm     32% 0.00 in 0.0 W/m2 CLR
11:53 79.7 °F 47.2 °F 30.05 in ESE 2.0 mph 2.3 mph 32% 0.00 in 0.0 W/m2 CLR
11:58 80.2 °F 47.7 °F 30.05 in Calm   2.3 mph 32% 0.00 in 0.0 W/m2 CLR
12:03 80.4 °F 47.0 °F 30.04 in Calm     31% 0.00 in 0.0 W/m2 CLR
12:08 81.0 °F 47.5 °F 30.04 in ESE 0.3 mph   31% 0.00 in 0.0 W/m2 CLR
12:13 81.1 °F 47.6 °F 30.04 in Calm     31% 0.00 in 0.0 W/m2 CLR
12:18 81.3 °F 46.9 °F 30.04 in ESE 2.9 mph 3.5 mph 30% 0.00 in 0.0 W/m2 CLR
12:23 81.7 °F 47.2 °F 30.04 in ESE 7.5 mph 8.1 mph 30% 0.00 in 0.0 W/m2 CLR
12:28 82.2 °F 47.7 °F 30.03 in ESE 5.1 mph 5.8 mph 30% 0.00 in 0.0 W/m2 CLR
12:33 82.6 °F 47.1 °F 30.03 in Calm     29% 0.00 in 0.0 W/m2 CLR
12:38 82.9 °F 46.5 °F 30.02 in Calm   6.9 mph 28% 0.00 in 0.0 W/m2 CLR
12:39 82.9 °F 46.5 °F 30.02 in Calm     28% 0.00 in 0.0 W/m2 CLR
12:44 83.1 °F 45.7 °F 30.02 in Calm     27% 0.00 in 0.0 W/m2 CLR
12:49 83.5 °F 46.0 °F 30.02 in Calm   4.6 mph 27% 0.00 in 0.0 W/m2 CLR
12:54 84.2 °F 46.6 °F 30.02 in Calm     27% 0.00 in 0.0 W/m2 CLR
12:59 84.9 °F 46.2 °F 30.02 in ESE 2.0 mph 2.3 mph 26% 0.00 in 0.0 W/m2 CLR
13:04 84.9 °F 46.2 °F 30.02 in Calm     26% 0.00 in 0.0 W/m2 CLR
13:09 86.0 °F 46.1 °F 30.02 in ESE 3.7 mph 4.0 mph 25% 0.00 in 0.0 W/m2 CLR
13:14 86.2 °F 46.2 °F 30.01 in Calm     25% 0.00 in 0.0 W/m2 CLR
13:19 86.7 °F 46.7 °F 30.01 in ESE 0.2 mph 4.6 mph 25% 0.00 in 0.0 W/m2 CLR
13:24 87.1 °F 47.0 °F 30.01 in ESE 0.7 mph 3.5 mph 25% 0.00 in 0.0 W/m2 CLR
13:29 87.6 °F 47.4 °F 30.01 in NNE 3.4 mph 3.5 mph 25% 0.00 in 0.0 W/m2 CLR
13:34 88.2 °F 46.8 °F 30.01 in North 3.6 mph 3.8 mph 24% 0.00 in 0.0 W/m2 CLR
13:39 88.2 °F 46.8 °F 30.01 in Calm     24% 0.00 in 0.0 W/m2 CLR
13:44 88.3 °F 47.0 °F 30.01 in Calm     24% 0.00 in 0.0 W/m2 CLR
13:49 88.3 °F 44.7 °F 30.00 in SSE 6.7 mph 8.1 mph 22% 0.00 in 0.0 W/m2 CLR
13:54 88.3 °F 44.7 °F 30.00 in Calm     22% 0.00 in 0.0 W/m2 CLR
13:59 88.3 °F 42.2 °F 30.00 in NW 9.0 mph 9.0 mph 20% 0.00 in 0.0 W/m2 CLR
14:04 88.0 °F 41.9 °F 30.00 in SW 2.8 mph 4.6 mph 20% 0.00 in 0.0 W/m2 CLR
14:14 87.6 °F 38.9 °F 29.99 in WNW 4.8 mph 7.4 mph 18% 0.00 in 0.0 W/m2 CLR
14:19 87.6 °F 40.3 °F 30.00 in West 1.7 mph 2.3 mph 19% 0.00 in 0.0 W/m2 CLR
14:20 87.6 °F 40.3 °F 29.99 in West 2.0 mph 2.3 mph 19% 0.00 in 0.0 W/m2 CLR
14:25 87.8 °F 40.4 °F 29.99 in Calm     19% 0.00 in 0.0 W/m2 CLR
14:30 88.3 °F 40.8 °F 29.99 in WSW 6.3 mph 6.9 mph 19% 0.00 in 0.0 W/m2 CLR
14:35 88.7 °F 41.1 °F 29.99 in WSW 1.5 mph 1.6 mph 19% 0.00 in 0.0 W/m2 CLR
14:40 88.9 °F 42.6 °F 29.99 in SW 3.1 mph 3.5 mph 20% 0.00 in 0.0 W/m2 CLR
14:45 88.9 °F 41.3 °F 29.99 in WSW 6.0 mph 11.5 mph 19% 0.00 in 0.0 W/m2 CLR
14:50 88.9 °F 41.3 °F 29.99 in SW 9.0 mph 12.0 mph 19% 0.00 in 0.0 W/m2 CLR
14:55 88.9 °F 41.3 °F 29.98 in SW 2.0 mph 6.5 mph 19% 0.00 in 0.0 W/m2 CLR
15:00 89.1 °F 41.4 °F 29.98 in SW 5.1 mph 8.1 mph 19% 0.00 in 0.0 W/m2 CLR
15:05 89.2 °F 41.6 °F 29.98 in SW 2.4 mph 6.9 mph 19% 0.00 in 0.0 W/m2 CLR
15:10 89.2 °F 41.6 °F 29.99 in Calm     19% 0.00 in 0.0 W/m2 CLR
15:15 89.6 °F 41.9 °F 29.98 in Calm     19% 0.00 in 0.0 W/m2 CLR
15:20 88.9 °F 41.3 °F 29.98 in West 2.2 mph 2.3 mph 19% 0.00 in 0.0 W/m2 CLR
15:25 88.7 °F 41.1 °F 29.98 in Calm   7.4 mph 19% 0.00 in 0.0 W/m2 CLR
15:30 88.9 °F 41.3 °F 29.97 in Calm     19% 0.00 in 0.0 W/m2 CLR
15:35 88.9 °F 41.3 °F 29.97 in SW 0.7 mph 4.6 mph 19% 0.00 in 0.0 W/m2 CLR
15:40 89.1 °F 41.4 °F 29.98 in SW 6.5 mph 6.9 mph 19% 0.00 in 0.0 W/m2 CLR
15:45 88.9 °F 41.3 °F 29.97 in WSW 6.4 mph 8.1 mph 19% 0.00 in 0.0 W/m2 CLR
15:50 89.1 °F 41.4 °F 29.97 in SW 6.3 mph 8.1 mph 19% 0.00 in 0.0 W/m2 CLR
15:55 88.3 °F 39.5 °F 29.98 in WNW 7.8 mph 8.1 mph 18% 0.00 in 0.0 W/m2 CLR
16:00 87.6 °F 40.3 °F 29.97 in SW 0.4 mph 1.2 mph 19% 0.00 in 0.0 W/m2 CLR
16:05 88.3 °F 39.5 °F 29.97 in SW 9.4 mph 9.4 mph 18% 0.00 in 0.0 W/m2 CLR
16:10 88.9 °F 41.3 °F 29.96 in Calm     19% 0.00 in 0.0 W/m2 CLR
16:15 89.4 °F 41.7 °F 29.96 in SW 6.2 mph 8.5 mph 19% 0.00 in 0.0 W/m2 CLR
16:20 89.4 °F 41.7 °F 29.97 in Calm     19% 0.00 in 0.0 W/m2 CLR
16:25 89.8 °F 40.6 °F 29.96 in Calm     18% 0.00 in 0.0 W/m2 CLR
16:30 89.8 °F 40.6 °F 29.96 in Calm   1.2 mph 18% 0.00 in 0.0 W/m2 CLR
16:35 89.4 °F 40.3 °F 29.96 in SW 5.8 mph 5.8 mph 18% 0.00 in 0.0 W/m2 CLR
16:40 89.4 °F 40.3 °F 29.96 in WSW 0.2 mph   18% 0.00 in 0.0 W/m2 CLR
16:45 89.2 °F 40.2 °F 29.96 in SW 1.9 mph 5.8 mph 18% 0.00 in 0.0 W/m2 CLR
16:50 89.4 °F 40.3 °F 29.96 in Calm     18% 0.00 in 0.0 W/m2 CLR
16:55 89.4 °F 40.3 °F 29.96 in Calm     18% 0.00 in 0.0 W/m2 CLR
17:00 90.0 °F 40.8 °F 29.96 in Calm     18% 0.00 in 0.0 W/m2 CLR
17:05 90.1 °F 40.9 °F 29.96 in Calm     18% 0.00 in 0.0 W/m2 CLR
17:10 88.9 °F 38.4 °F 29.96 in NW 6.0 mph 6.0 mph 17% 0.00 in 0.0 W/m2 CLR
17:15 88.2 °F 39.3 °F 29.96 in SW 10.3 mph 11.5 mph 18% 0.00 in 0.0 W/m2 CLR
17:20 88.3 °F 39.5 °F 29.96 in Calm     18% 0.00 in 0.0 W/m2 CLR
17:25 88.3 °F 39.5 °F 29.96 in Calm     18% 0.00 in 0.0 W/m2 CLR
17:30 88.9 °F 41.3 °F 29.95 in Calm     19% 0.00 in 0.0 W/m2 CLR
17:35 89.1 °F 41.4 °F 29.95 in Calm     19% 0.00 in 0.0 W/m2 CLR
17:40 88.7 °F 39.7 °F 29.95 in Calm     18% 0.00 in 0.0 W/m2 CLR
17:43 88.7 °F 39.7 °F 29.95 in Calm     18% 0.00 in 0.0 W/m2 CLR
17:48 88.2 °F 40.7 °F 29.95 in Calm     19% 0.00 in 0.0 W/m2 CLR
17:53 88.3 °F 40.8 °F 29.95 in Calm     19% 0.00 in 0.0 W/m2 CLR
17:58 88.3 °F 42.2 °F 29.94 in Calm     20% 0.00 in 0.0 W/m2 CLR
18:03 87.8 °F 41.7 °F 29.94 in Calm     20% 0.00 in 0.0 W/m2 CLR
18:08 87.1 °F 42.4 °F 29.94 in Calm     21% 0.00 in 0.0 W/m2 CLR
18:13 86.4 °F 41.8 °F 29.95 in Calm     21% 0.00 in 0.0 W/m2 CLR
18:18 84.6 °F 40.3 °F 29.94 in Calm     21% 0.00 in 0.0 W/m2 CLR
18:23 82.2 °F 39.6 °F 29.94 in SW 1.3 mph 2.3 mph 22% 0.00 in 0.0 W/m2 CLR
18:28 81.1 °F 38.7 °F 29.94 in Calm     22% 0.00 in 0.0 W/m2 CLR
18:33 80.6 °F 39.4 °F 29.95 in Calm     23% 0.00 in 0.0 W/m2 CLR
18:38 80.1 °F 38.9 °F 29.94 in Calm     23% 0.00 in 0.0 W/m2 CLR
18:43 79.0 °F 39.1 °F 29.94 in SW 3.6 mph 3.6 mph 24% 0.00 in 0.0 W/m2 CLR
18:48 77.7 °F 38.0 °F 29.94 in Calm     24% 0.00 in 0.0 W/m2 CLR
18:53 77.2 °F 37.6 °F 29.94 in Calm     24% 0.00 in 0.0 W/m2 CLR
18:58 77.2 °F 38.6 °F 29.94 in Calm     25% 0.00 in 0.0 W/m2 CLR
19:03 75.0 °F 38.8 °F 29.94 in Calm     27% 0.00 in 0.0 W/m2 CLR
19:08 73.8 °F 38.6 °F 29.94 in Calm     28% 0.00 in 0.0 W/m2 CLR
19:13 72.7 °F 37.7 °F 29.94 in Calm     28% 0.00 in 0.0 W/m2 CLR
19:18 71.8 °F 37.8 °F 29.94 in Calm     29% 0.00 in 0.0 W/m2 CLR
19:23 71.4 °F 38.4 °F 29.94 in Calm     30% 0.00 in 0.0 W/m2 CLR
19:28 70.3 °F 37.4 °F 29.94 in Calm     30% 0.00 in 0.0 W/m2 CLR
19:33 69.3 °F 37.3 °F 29.95 in Calm     31% 0.00 in 0.0 W/m2 CLR
19:38 68.7 °F 37.7 °F 29.94 in Calm     32% 0.00 in 0.0 W/m2 CLR
19:43 68.0 °F 37.8 °F 29.95 in Calm     33% 0.00 in 0.0 W/m2 CLR
19:48 66.9 °F 37.6 °F 29.95 in Calm     34% 0.00 in 0.0 W/m2 CLR
19:53 66.9 °F 37.6 °F 29.95 in Calm     34% 0.00 in 0.0 W/m2 CLR
19:58 66.6 °F 38.0 °F 29.94 in Calm     35% 0.00 in 0.0 W/m2 CLR
20:03 66.0 °F 37.6 °F 29.95 in Calm     35% 0.00 in 0.0 W/m2 CLR
20:08 64.8 °F 37.2 °F 29.95 in Calm     36% 0.00 in 0.0 W/m2 CLR
20:14 64.2 °F 37.4 °F 29.96 in Calm     37% 0.00 in 0.0 W/m2 CLR
20:19 63.3 °F 37.3 °F 29.95 in Calm     38% 0.00 in 0.0 W/m2 CLR
20:24 63.1 °F 37.1 °F 29.96 in Calm     38% 0.00 in 0.0 W/m2 CLR
20:28 62.4 °F 36.5 °F 29.96 in Calm     38% 0.00 in 0.0 W/m2 CLR
20:33 62.1 °F 36.8 °F 29.96 in Calm     39% 0.00 in 0.0 W/m2 CLR
20:38 61.5 °F 37.0 °F 29.96 in Calm     40% 0.00 in 0.0 W/m2 CLR
20:43 61.0 °F 37.1 °F 29.96 in Calm     41% 0.00 in 0.0 W/m2 CLR
20:48 60.4 °F 36.6 °F 29.96 in Calm     41% 0.00 in 0.0 W/m2 CLR
20:53 59.9 °F 36.7 °F 29.96 in Calm     42% 0.00 in 0.0 W/m2 CLR
20:58 59.2 °F 36.7 °F 29.95 in Calm     43% 0.00 in 0.0 W/m2 CLR
21:03 58.8 °F 36.9 °F 29.95 in Calm     44% 0.00 in 0.0 W/m2 CLR
21:08 58.6 °F 36.8 °F 29.96 in Calm     44% 0.00 in 0.0 W/m2 CLR
21:13 58.6 °F 36.8 °F 29.95 in Calm     44% 0.00 in 0.0 W/m2 CLR
21:18 58.5 °F 36.6 °F 29.95 in Calm     44% 0.00 in 0.0 W/m2 CLR
21:23 58.3 °F 37.0 °F 29.95 in Calm     45% 0.00 in 0.0 W/m2 CLR
21:28 57.9 °F 37.2 °F 29.95 in Calm     46% 0.00 in 0.0 W/m2 CLR
21:33 57.4 °F 36.8 °F 29.95 in Calm     46% 0.00 in 0.0 W/m2 CLR
21:38 56.8 °F 36.8 °F 29.95 in Calm     47% 0.00 in 0.0 W/m2 CLR
21:43 56.5 °F 36.5 °F 29.95 in Calm     47% 0.00 in 0.0 W/m2 CLR
21:48 56.3 °F 36.8 °F 29.95 in Calm     48% 0.00 in 0.0 W/m2 CLR
21:53 55.8 °F 36.9 °F 29.95 in Calm     49% 0.00 in 0.0 W/m2 CLR
21:58 55.2 °F 36.4 °F 29.95 in Calm     49% 0.00 in 0.0 W/m2 CLR
22:03 55.0 °F 37.2 °F 29.95 in Calm     51% 0.00 in 0.0 W/m2 CLR
22:08 54.5 °F 37.7 °F 29.95 in Calm     53% 0.00 in 0.0 W/m2 CLR
22:13 54.1 °F 37.4 °F 29.95 in Calm     53% 0.00 in 0.0 W/m2 CLR
22:18 53.8 °F 37.0 °F 29.95 in Calm     53% 0.00 in 0.0 W/m2 CLR
22:23 53.4 °F 37.2 °F 29.95 in Calm     54% 0.00 in 0.0 W/m2 CLR
22:28 53.4 °F 37.2 °F 29.95 in Calm     54% 0.00 in 0.0 W/m2 CLR
22:33 53.1 °F 37.3 °F 29.95 in Calm     55% 0.00 in 0.0 W/m2 CLR
22:38 52.5 °F 37.3 °F 29.95 in Calm     56% 0.00 in 0.0 W/m2 CLR
22:43 52.3 °F 37.1 °F 29.95 in Calm     56% 0.00 in 0.0 W/m2 CLR
22:48 52.5 °F 37.3 °F 29.95 in Calm     56% 0.00 in 0.0 W/m2 CLR
22:53 52.3 °F 37.1 °F 29.95 in Calm     56% 0.00 in 0.0 W/m2 CLR
22:58 51.8 °F 37.0 °F 29.95 in Calm     57% 0.00 in 0.0 W/m2 CLR
23:03 51.4 °F 37.1 °F 29.95 in Calm     58% 0.00 in 0.0 W/m2 CLR
23:08 51.1 °F 36.8 °F 29.94 in Calm     58% 0.00 in 0.0 W/m2 CLR
23:13 50.9 °F 37.1 °F 29.94 in Calm     59% 0.00 in 0.0 W/m2 CLR
23:18 50.7 °F 37.3 °F 29.94 in Calm     60% 0.00 in 0.0 W/m2 CLR
23:23 50.7 °F 37.8 °F 29.94 in Calm     61% 0.00 in 0.0 W/m2 CLR
23:28 50.5 °F 37.2 °F 29.94 in Calm     60% 0.00 in 0.0 W/m2 CLR
23:33 50.2 °F 37.2 °F 29.94 in Calm     61% 0.00 in 0.0 W/m2 CLR
23:38 50.2 °F 37.2 °F 29.94 in Calm     61% 0.00 in 0.0 W/m2 CLR
23:43 49.8 °F 37.3 °F 29.94 in Calm     62% 0.00 in 0.0 W/m2 CLR
23:48 49.8 °F 37.3 °F 29.94 in Calm     62% 0.00 in 0.0 W/m2 CLR
23:53 49.8 °F 37.3 °F 29.94 in Calm     62% 0.00 in 0.0 W/m2 CLR
23:58 49.8 °F 36.9 °F 29.94 in Calm     61% 0.00 in 0.0 W/m2 CLR
Fernwood Weather
Compliments of Weather Underground - 4 mb